createdAt,value
2022-07-29T00:02:15.753Z,2.00
2022-07-29T00:04:42.488Z,2.00
2022-07-29T00:07:09.331Z,1.95
2022-07-29T00:09:43.037Z,2.10
2022-07-29T00:12:25.768Z,2.05
2022-07-29T00:14:55.354Z,2.25
2022-07-29T00:17:22.658Z,1.90
2022-07-29T00:19:49.242Z,1.90
2022-07-29T00:22:16.217Z,1.98
2022-07-29T00:24:43.519Z,1.92
2022-07-29T00:27:10.202Z,2.40
2022-07-29T00:29:36.769Z,1.80
2022-07-29T00:32:03.984Z,1.98
2022-07-29T00:34:50.308Z,2.00
2022-07-29T00:37:17.308Z,1.90
2022-07-29T00:39:44.138Z,1.80
2022-07-29T00:42:10.875Z,1.83
2022-07-29T00:44:42.491Z,1.92
2022-07-29T00:47:10.843Z,2.05
2022-07-29T00:49:39.502Z,1.85
2022-07-29T00:52:06.834Z,2.15
2022-07-29T00:54:35.037Z,1.90
2022-07-29T00:57:02.460Z,1.90
2022-07-29T00:59:34.917Z,1.85
2022-07-29T01:02:03.304Z,1.73
2022-07-29T01:04:31.033Z,2.10
2022-07-29T01:06:58.057Z,1.88
2022-07-29T01:09:42.742Z,1.90
2022-07-29T01:12:19.970Z,2.10
2022-07-29T01:14:48.795Z,2.10
2022-07-29T01:17:25.266Z,1.90
2022-07-29T01:20:11.699Z,2.08
2022-07-29T01:22:54.912Z,1.88
2022-07-29T01:25:53.190Z,1.90
2022-07-29T01:28:43.955Z,1.88
2022-07-29T01:31:24.353Z,2.05
2022-07-29T01:33:59.208Z,2.08
2022-07-29T01:36:34.581Z,2.03
2022-07-29T01:39:21.230Z,2.58
2022-07-29T01:41:59.090Z,2.05
2022-07-29T01:44:56.878Z,1.70
2022-07-29T01:47:32.260Z,2.25
2022-07-29T01:50:01.211Z,2.00
2022-07-29T01:52:53.747Z,2.20
2022-07-29T01:55:23.630Z,2.00
2022-07-29T01:57:52.005Z,2.30
2022-07-29T02:00:19.334Z,2.15
2022-07-29T02:02:48.723Z,2.22
2022-07-29T02:05:18.507Z,2.03
2022-07-29T02:07:48.378Z,2.10
2022-07-29T02:10:16.770Z,2.47
2022-07-29T02:12:50.745Z,2.28
2022-07-29T02:15:19.173Z,2.08
2022-07-29T02:17:56.158Z,2.53
2022-07-29T02:20:26.244Z,2.10
2022-07-29T02:22:54.441Z,1.98
2022-07-29T02:25:23.261Z,2.33
2022-07-29T02:27:52.366Z,2.43
2022-07-29T02:30:20.707Z,2.50
2022-07-29T02:32:49.357Z,2.75
2022-07-29T02:35:17.309Z,2.67
2022-07-29T02:37:46.377Z,2.63
2022-07-29T02:40:15.916Z,2.50
2022-07-29T02:42:47.520Z,2.43
2022-07-29T02:45:14.175Z,2.80
2022-07-29T02:47:44.638Z,2.70
2022-07-29T02:52:48.601Z,2.90
2022-07-29T02:55:30.754Z,2.60
2022-07-29T02:58:09.446Z,2.45
2022-07-29T03:00:40.386Z,2.80
2022-07-29T03:03:11.970Z,2.92
2022-07-29T03:05:39.469Z,2.60
2022-07-29T03:08:10.322Z,2.95
2022-07-29T03:10:39.927Z,2.53
2022-07-29T03:13:08.701Z,2.80
2022-07-29T03:15:36.034Z,2.88
2022-07-29T03:18:03.580Z,3.00
2022-07-29T03:20:30.233Z,2.35
2022-07-29T03:22:56.701Z,3.05
2022-07-29T03:25:23.398Z,2.40
2022-07-29T03:27:50.927Z,2.63
2022-07-29T03:30:21.784Z,2.35
2022-07-29T03:32:50.038Z,2.40
2022-07-29T03:35:19.304Z,2.50
2022-07-29T03:37:46.637Z,2.90
2022-07-29T03:40:20.946Z,2.38
2022-07-29T03:42:49.771Z,2.60
2022-07-29T03:45:19.424Z,2.50
2022-07-29T03:47:57.048Z,2.50
2022-07-29T03:50:26.766Z,2.95
2022-07-29T03:52:53.757Z,2.85
2022-07-29T03:55:20.403Z,2.70
2022-07-29T03:57:48.435Z,2.42
2022-07-29T04:00:17.134Z,2.70
2022-07-29T04:02:49.989Z,3.28
2022-07-29T04:05:17.802Z,3.20
2022-07-29T04:07:46.227Z,3.08
2022-07-29T04:10:12.790Z,3.35
2022-07-29T04:12:39.406Z,2.47
2022-07-29T04:15:06.685Z,2.70
2022-07-29T04:17:33.216Z,3.00
2022-07-29T04:20:00.390Z,2.60
2022-07-29T04:22:27.120Z,2.88
2022-07-29T04:24:54.090Z,2.90
2022-07-29T04:27:20.713Z,2.90
2022-07-29T04:29:56.163Z,2.85
2022-07-29T04:32:25.170Z,3.08
2022-07-29T04:34:51.947Z,3.17
2022-07-29T04:37:18.610Z,2.70
2022-07-29T04:39:45.126Z,3.50
2022-07-29T04:42:12.222Z,2.60
2022-07-29T04:44:43.048Z,3.40
2022-07-29T04:47:10.129Z,2.78
2022-07-29T04:49:39.313Z,3.45
2022-07-29T04:52:06.812Z,2.78
2022-07-29T04:54:33.973Z,3.03
2022-07-29T04:57:00.603Z,3.25
2022-07-29T04:59:27.664Z,4.45
2022-07-29T05:01:54.307Z,3.22
2022-07-29T05:04:21.089Z,2.70
2022-07-29T05:06:47.884Z,2.88
2022-07-29T05:09:14.490Z,2.90
2022-07-29T05:11:40.980Z,2.78
2022-07-29T05:14:07.510Z,2.80
2022-07-29T05:16:34.426Z,3.63
2022-07-29T05:19:01.014Z,3.45
2022-07-29T05:21:27.534Z,2.60
2022-07-29T05:23:54.098Z,3.20
2022-07-29T05:26:20.634Z,3.53
2022-07-29T05:28:47.127Z,3.50
2022-07-29T05:31:15.571Z,3.38
2022-07-29T05:33:43.335Z,4.25
2022-07-29T05:36:10.814Z,5.28
2022-07-29T05:38:37.635Z,3.42
2022-07-29T05:41:05.326Z,4.45
2022-07-29T05:43:32.162Z,4.10
2022-07-29T05:45:59.023Z,3.25
2022-07-29T05:48:25.873Z,3.35
2022-07-29T05:50:52.398Z,3.03
2022-07-29T05:53:20.515Z,4.15
2022-07-29T05:55:48.720Z,3.55
2022-07-29T05:58:15.307Z,3.60
2022-07-29T06:00:41.839Z,3.95
2022-07-29T06:03:08.564Z,3.38
2022-07-29T06:05:35.174Z,3.50
2022-07-29T06:08:01.762Z,4.80
2022-07-29T06:10:28.420Z,3.35
2022-07-29T06:12:54.917Z,4.32
2022-07-29T06:15:21.485Z,3.90
2022-07-29T06:18:00.524Z,3.47
2022-07-29T06:20:32.553Z,3.83
2022-07-29T06:23:00.373Z,3.53
2022-07-29T06:25:30.047Z,3.83
2022-07-29T06:27:56.960Z,3.63
2022-07-29T06:30:23.687Z,3.85
2022-07-29T06:32:50.553Z,4.50
2022-07-29T06:35:39.081Z,3.95
2022-07-29T06:38:09.520Z,4.13
2022-07-29T06:41:03.833Z,4.22
2022-07-29T06:43:52.274Z,6.55
2022-07-29T06:46:23.019Z,4.20
2022-07-29T06:48:51.562Z,3.97
2022-07-29T06:51:21.795Z,4.45
2022-07-29T06:54:01.422Z,4.90
2022-07-29T06:56:39.584Z,4.20
2022-07-29T06:59:07.971Z,4.10
2022-07-29T07:01:34.798Z,4.03
2022-07-29T07:04:01.541Z,4.28
2022-07-29T07:06:28.403Z,4.22
2022-07-29T07:08:54.932Z,4.00
2022-07-29T07:11:21.638Z,4.15
2022-07-29T07:13:48.165Z,4.13
2022-07-29T07:16:14.743Z,4.13
2022-07-29T07:18:41.671Z,3.97
2022-07-29T07:21:08.219Z,4.57
2022-07-29T07:23:34.726Z,3.90
2022-07-29T07:26:01.339Z,3.40
2022-07-29T07:28:27.847Z,3.67
2022-07-29T07:30:54.468Z,3.80
2022-07-29T07:33:21.390Z,3.63
2022-07-29T07:35:48.260Z,4.03
2022-07-29T07:38:14.787Z,4.20
2022-07-29T07:40:42.329Z,4.35
2022-07-29T07:43:08.818Z,3.90
2022-07-29T07:45:37.899Z,4.10
2022-07-29T07:48:04.955Z,4.63
2022-07-29T07:50:31.540Z,3.90
2022-07-29T07:52:58.896Z,4.55
2022-07-29T07:55:26.820Z,4.97
2022-07-29T07:57:54.187Z,4.57
2022-07-29T08:00:23.608Z,4.60
2022-07-29T08:02:51.456Z,5.20
2022-07-29T08:05:18.581Z,4.72
2022-07-29T08:07:47.081Z,5.10
2022-07-29T08:10:38.008Z,4.72
2022-07-29T08:13:08.945Z,4.60
2022-07-29T08:15:35.830Z,4.22
2022-07-29T08:18:08.027Z,4.38
2022-07-29T08:20:36.715Z,5.00
2022-07-29T08:23:04.264Z,4.57
2022-07-29T08:25:31.326Z,4.53
2022-07-29T08:27:57.919Z,5.10
2022-07-29T08:30:24.677Z,4.07
2022-07-29T08:32:55.005Z,5.18
2022-07-29T08:35:23.987Z,4.40
2022-07-29T08:37:53.004Z,4.80
2022-07-29T08:40:30.473Z,4.38
2022-07-29T08:42:59.900Z,5.67
2022-07-29T08:45:26.885Z,4.97
2022-07-29T08:47:53.549Z,3.95
2022-07-29T08:50:20.289Z,4.80
2022-07-29T08:52:47.888Z,4.43
2022-07-29T08:55:16.351Z,5.03
2022-07-29T08:57:53.429Z,4.10
2022-07-29T09:00:26.099Z,4.32
2022-07-29T09:02:58.035Z,4.90
2022-07-29T09:05:40.166Z,4.90
2022-07-29T09:08:08.124Z,4.07
2022-07-29T09:10:36.539Z,4.40
2022-07-29T09:13:03.482Z,4.03
2022-07-29T09:15:30.047Z,4.40
2022-07-29T09:17:57.578Z,4.13
2022-07-29T09:20:24.280Z,3.80
2022-07-29T09:22:54.099Z,4.40
2022-07-29T09:25:37.512Z,5.05
2022-07-29T09:28:12.673Z,4.35
2022-07-29T09:31:11.703Z,5.18
2022-07-29T09:33:41.603Z,4.68
2022-07-29T09:36:10.322Z,4.45
2022-07-29T09:38:38.206Z,4.10
2022-07-29T09:41:06.841Z,5.03
2022-07-29T09:43:34.429Z,4.13
2022-07-29T09:46:14.775Z,4.30
2022-07-29T09:48:41.412Z,4.03
2022-07-29T09:51:25.571Z,4.00
2022-07-29T09:53:55.264Z,3.85
2022-07-29T09:56:49.883Z,4.68
2022-07-29T09:59:16.851Z,4.00
2022-07-29T10:01:43.561Z,4.03
2022-07-29T10:04:10.248Z,4.22
2022-07-29T10:07:03.542Z,4.53
2022-07-29T10:09:31.593Z,4.25
2022-07-29T10:12:11.968Z,3.78
2022-07-29T10:14:39.444Z,4.57
2022-07-29T10:17:07.537Z,3.80
2022-07-29T10:19:35.940Z,3.80
2022-07-29T10:22:05.089Z,3.80
2022-07-29T10:24:33.214Z,4.32
2022-07-29T10:27:04.220Z,3.90
2022-07-29T10:29:32.398Z,4.90
2022-07-29T10:32:26.715Z,4.53
2022-07-29T10:35:05.109Z,4.78
2022-07-29T10:37:58.750Z,3.95
2022-07-29T10:40:58.697Z,4.32
2022-07-29T10:43:29.828Z,4.72
2022-07-29T10:45:59.257Z,4.60
2022-07-29T10:48:25.896Z,4.80
2022-07-29T10:51:04.654Z,4.97
2022-07-29T10:53:52.317Z,4.28
2022-07-29T10:56:30.895Z,4.55
2022-07-29T10:59:20.258Z,4.53
2022-07-29T11:01:53.603Z,4.57
2022-07-29T11:04:45.904Z,4.80
2022-07-29T11:10:12.855Z,4.63
2022-07-29T11:12:43.478Z,4.18
2022-07-29T11:15:24.970Z,4.00
2022-07-29T11:17:54.629Z,4.50
2022-07-29T11:20:45.584Z,5.13
2022-07-29T11:23:28.266Z,4.53
2022-07-29T11:26:23.041Z,4.60
2022-07-29T11:29:00.533Z,3.80
2022-07-29T11:31:42.440Z,3.95
2022-07-29T11:34:21.252Z,4.20
2022-07-29T11:37:08.065Z,4.30
2022-07-29T11:39:36.955Z,3.97
2022-07-29T11:45:42.818Z,5.10
2022-07-29T11:48:05.665Z,4.38
2022-07-29T11:50:48.226Z,3.83
2022-07-29T11:53:15.299Z,3.15
2022-07-29T11:55:51.583Z,3.35
2022-07-29T11:58:25.177Z,4.53
2022-07-29T12:00:52.943Z,4.30
2022-07-29T12:03:34.797Z,3.60
2022-07-29T12:08:28.878Z,4.28
2022-07-29T12:10:55.495Z,3.40
2022-07-29T12:13:22.366Z,3.08
2022-07-29T12:16:00.025Z,3.75
2022-07-29T12:18:27.812Z,3.42
2022-07-29T12:21:03.201Z,4.10
2022-07-29T12:23:34.446Z,3.80
2022-07-29T12:26:07.617Z,4.70
2022-07-29T12:28:40.233Z,4.13
2022-07-29T12:31:13.900Z,4.35
2022-07-29T12:33:40.888Z,4.90
2022-07-29T12:36:12.894Z,4.82
2022-07-29T12:38:45.083Z,4.90
2022-07-29T12:41:11.830Z,4.53
2022-07-29T12:43:38.421Z,4.30
2022-07-29T12:46:16.113Z,4.88
2022-07-29T12:48:44.331Z,5.18
2022-07-29T12:51:15.092Z,3.88
2022-07-29T12:53:41.858Z,4.53
2022-07-29T12:56:41.270Z,4.70
2022-07-29T12:59:22.407Z,4.80
2022-07-29T13:01:51.429Z,5.07
2022-07-29T13:04:32.651Z,5.00
2022-07-29T13:07:08.108Z,5.28
2022-07-29T13:09:41.863Z,5.00
2022-07-29T13:12:13.279Z,3.78
2022-07-29T13:14:42.201Z,4.97
2022-07-29T13:17:11.304Z,4.68
2022-07-29T13:19:48.833Z,4.07
2022-07-29T13:22:23.063Z,3.85
2022-07-29T13:24:52.731Z,4.20
2022-07-29T13:27:39.727Z,4.70
2022-07-29T13:30:09.215Z,4.63
2022-07-29T13:32:37.310Z,3.42
2022-07-29T13:35:06.846Z,3.97
2022-07-29T13:37:35.998Z,3.90
2022-07-29T13:40:04.129Z,3.47
2022-07-29T13:42:31.647Z,3.10
2022-07-29T13:44:58.311Z,3.50
2022-07-29T13:47:32.849Z,3.70
2022-07-29T13:50:01.055Z,3.95
2022-07-29T13:52:29.435Z,3.65
2022-07-29T13:54:55.978Z,3.45
2022-07-29T13:57:22.505Z,3.38
2022-07-29T13:59:53.716Z,3.33
2022-07-29T14:02:21.388Z,4.03
2022-07-29T14:04:55.997Z,4.10
2022-07-29T14:09:49.201Z,3.70
2022-07-29T14:12:15.807Z,3.83
2022-07-29T14:14:42.549Z,3.30
2022-07-29T14:17:09.837Z,3.50
2022-07-29T14:19:36.851Z,3.90
2022-07-29T14:22:05.923Z,3.40
2022-07-29T14:24:36.990Z,3.20
2022-07-29T14:27:04.832Z,3.28
2022-07-29T14:29:37.114Z,3.42
2022-07-29T14:32:07.195Z,2.65
2022-07-29T14:34:34.349Z,2.80
2022-07-29T14:37:00.883Z,2.90
2022-07-29T14:39:31.834Z,3.05
2022-07-29T14:41:59.043Z,2.72
2022-07-29T14:44:30.894Z,2.80
2022-07-29T14:47:01.285Z,2.72
2022-07-29T14:49:34.518Z,2.50
2022-07-29T14:52:01.412Z,2.40
2022-07-29T14:54:28.323Z,2.67
2022-07-29T14:56:58.307Z,2.70
2022-07-29T14:59:25.684Z,3.25
2022-07-29T15:01:52.341Z,2.58
2022-07-29T15:04:19.203Z,2.50
2022-07-29T15:06:45.785Z,3.00
2022-07-29T15:09:12.805Z,4.63
2022-07-29T15:11:39.331Z,3.22
2022-07-29T15:14:06.888Z,3.55
2022-07-29T15:16:36.220Z,3.58
2022-07-29T15:19:02.989Z,3.53
2022-07-29T15:21:29.474Z,3.78
2022-07-29T15:23:55.981Z,3.25
2022-07-29T15:26:22.595Z,3.17
2022-07-29T15:28:49.462Z,3.35
2022-07-29T15:31:16.149Z,3.20
2022-07-29T15:33:42.736Z,3.00
2022-07-29T15:36:09.539Z,3.40
2022-07-29T15:38:36.278Z,3.70
2022-07-29T15:41:09.328Z,3.22
2022-07-29T15:43:36.381Z,3.35
2022-07-29T15:46:21.628Z,3.35
2022-07-29T15:48:48.435Z,2.90
2022-07-29T15:51:15.144Z,3.33
2022-07-29T15:53:41.774Z,3.03
2022-07-29T15:56:08.305Z,3.00
2022-07-29T15:58:34.838Z,3.95
2022-07-29T16:01:01.494Z,3.63
2022-07-29T16:03:28.333Z,3.70
2022-07-29T16:05:54.846Z,3.60
2022-07-29T16:08:21.339Z,4.00
2022-07-29T16:10:47.972Z,4.50
2022-07-29T16:13:18.831Z,4.00
2022-07-29T16:15:46.629Z,3.85
2022-07-29T16:18:30.413Z,3.35
2022-07-29T16:20:57.284Z,3.20
2022-07-29T16:23:24.648Z,3.10
2022-07-29T16:25:59.691Z,2.95
2022-07-29T16:28:26.910Z,2.97
2022-07-29T16:30:53.626Z,3.28
2022-07-29T16:33:20.166Z,3.05
2022-07-29T16:35:46.746Z,2.80
2022-07-29T16:38:13.439Z,2.88
2022-07-29T16:40:40.042Z,2.65
2022-07-29T16:43:06.663Z,2.80
2022-07-29T16:45:46.131Z,3.00
2022-07-29T16:48:14.508Z,2.63
2022-07-29T16:50:41.203Z,2.28
2022-07-29T16:53:10.302Z,2.60
2022-07-29T16:55:36.999Z,2.58
2022-07-29T16:58:05.279Z,2.78
2022-07-29T17:00:31.960Z,2.53
2022-07-29T17:03:00.047Z,2.40
2022-07-29T17:05:29.553Z,2.40
2022-07-29T17:08:16.191Z,2.40
2022-07-29T17:10:42.764Z,2.30
2022-07-29T17:13:09.643Z,2.45
2022-07-29T17:15:36.675Z,2.60
2022-07-29T17:18:04.166Z,2.50
2022-07-29T17:20:39.546Z,2.33
2022-07-29T17:23:06.134Z,2.25
2022-07-29T17:25:32.691Z,2.30
2022-07-29T17:28:01.190Z,2.30
2022-07-29T17:30:28.381Z,2.28
2022-07-29T17:32:55.097Z,2.17
2022-07-29T17:35:40.514Z,2.20
2022-07-29T17:38:07.219Z,2.58
2022-07-29T17:40:33.746Z,2.03
2022-07-29T17:43:00.339Z,2.30
2022-07-29T17:45:49.490Z,2.42
2022-07-29T17:48:14.264Z,2.00
2022-07-29T17:50:40.871Z,2.03
2022-07-29T17:53:15.578Z,2.30
2022-07-29T17:55:48.554Z,2.60
2022-07-29T17:58:16.339Z,2.55
2022-07-29T18:00:43.312Z,2.50
2022-07-29T18:03:10.106Z,2.72
2022-07-29T18:05:36.912Z,2.40
2022-07-29T18:08:03.702Z,3.10
2022-07-29T18:10:30.372Z,2.95
2022-07-29T18:12:57.055Z,2.55
2022-07-29T18:15:23.723Z,2.83
2022-07-29T18:17:57.206Z,2.40
2022-07-29T18:20:26.614Z,2.58
2022-07-29T18:22:54.404Z,2.95
2022-07-29T18:25:21.004Z,2.75
2022-07-29T18:27:47.619Z,2.40
2022-07-29T18:30:17.036Z,2.60
2022-07-29T18:32:59.132Z,3.30
2022-07-29T18:35:30.721Z,2.47
2022-07-29T18:38:02.169Z,2.35
2022-07-29T18:40:29.759Z,3.03
2022-07-29T18:42:56.555Z,3.00
2022-07-29T18:45:23.325Z,2.90
2022-07-29T18:47:58.584Z,2.85
2022-07-29T18:50:29.248Z,3.25
2022-07-29T18:52:58.642Z,2.65
2022-07-29T18:55:26.173Z,2.85
2022-07-29T18:57:54.116Z,2.70
2022-07-29T19:00:23.914Z,2.17
2022-07-29T19:02:51.150Z,2.70
2022-07-29T19:05:18.078Z,2.75
2022-07-29T19:07:44.783Z,2.95
2022-07-29T19:10:12.230Z,2.47
2022-07-29T19:12:39.156Z,2.20
2022-07-29T19:15:07.648Z,2.75
2022-07-29T19:17:34.272Z,2.90
2022-07-29T19:20:00.907Z,2.58
2022-07-29T19:22:27.765Z,3.05
2022-07-29T19:24:54.486Z,2.95
2022-07-29T19:27:21.025Z,2.78
2022-07-29T19:29:47.706Z,2.83
2022-07-29T19:32:24.480Z,2.65
2022-07-29T19:35:11.206Z,3.30
2022-07-29T19:37:37.708Z,2.40
2022-07-29T19:40:05.965Z,2.58
2022-07-29T19:42:32.629Z,3.10
2022-07-29T19:44:59.114Z,2.75
2022-07-29T19:47:25.725Z,2.58
2022-07-29T19:49:52.246Z,2.92
2022-07-29T19:52:18.855Z,3.38
2022-07-29T19:54:46.666Z,2.80
2022-07-29T19:57:13.181Z,3.20
2022-07-29T19:59:41.011Z,3.17
2022-07-29T20:02:10.850Z,3.13
2022-07-29T20:07:04.697Z,3.55
2022-07-29T20:09:31.816Z,3.30
2022-07-29T20:11:58.493Z,3.03
2022-07-29T20:14:25.022Z,3.38
2022-07-29T20:16:53.665Z,3.20
2022-07-29T20:19:20.217Z,3.47
2022-07-29T20:21:46.749Z,3.50
2022-07-29T20:24:13.459Z,4.15
2022-07-29T20:26:40.033Z,3.58
2022-07-29T20:29:06.769Z,3.70
2022-07-29T20:31:33.429Z,3.58
2022-07-29T20:34:02.698Z,3.78
2022-07-29T20:36:29.340Z,4.00
2022-07-29T20:38:56.635Z,3.63
2022-07-29T20:41:23.437Z,3.78
2022-07-29T20:43:50.136Z,4.18
2022-07-29T20:46:18.259Z,4.32
2022-07-29T20:48:46.918Z,3.97
2022-07-29T20:51:14.713Z,3.70
2022-07-29T20:53:41.629Z,3.92
2022-07-29T20:56:08.409Z,4.30
2022-07-29T20:58:36.273Z,4.20
2022-07-29T21:01:03.766Z,4.47
2022-07-29T21:03:30.507Z,4.05
2022-07-29T21:05:57.524Z,3.60
2022-07-29T21:08:24.474Z,4.57
2022-07-29T21:10:51.789Z,5.20
2022-07-29T21:13:20.601Z,4.10
2022-07-29T21:15:49.791Z,4.63
2022-07-29T21:18:34.458Z,4.50
2022-07-29T21:21:01.215Z,4.75
2022-07-29T21:23:27.939Z,5.22
2022-07-29T21:25:55.168Z,4.82
2022-07-29T21:28:29.387Z,4.97
2022-07-29T21:30:59.700Z,4.70
2022-07-29T21:33:29.634Z,4.55
2022-07-29T21:36:20.187Z,5.35
2022-07-29T21:38:42.963Z,4.70
2022-07-29T21:41:13.556Z,5.00
2022-07-29T21:43:41.956Z,5.30
2022-07-29T21:46:09.509Z,4.82
2022-07-29T21:48:36.096Z,5.88
2022-07-29T21:51:02.575Z,4.80
2022-07-29T21:53:29.356Z,5.75
2022-07-29T21:55:57.286Z,5.30
2022-07-29T21:58:24.626Z,6.00
2022-07-29T22:00:51.486Z,5.53
2022-07-29T22:03:18.044Z,4.95
2022-07-29T22:05:44.749Z,4.75
2022-07-29T22:08:11.673Z,4.90
2022-07-29T22:10:38.273Z,5.80
2022-07-29T22:13:04.944Z,6.15
2022-07-29T22:15:31.875Z,5.85
2022-07-29T22:17:58.947Z,5.65
2022-07-29T22:20:25.629Z,5.72
2022-07-29T22:22:52.931Z,5.63
2022-07-29T22:25:19.631Z,5.50
2022-07-29T22:27:46.210Z,6.20
2022-07-29T22:30:13.518Z,5.15
2022-07-29T22:32:40.437Z,5.28
2022-07-29T22:35:07.621Z,5.45
2022-07-29T22:37:34.422Z,5.22
2022-07-29T22:40:00.898Z,5.05
2022-07-29T22:42:27.437Z,4.88
2022-07-29T22:44:54.130Z,5.20
2022-07-29T22:47:45.927Z,4.47
2022-07-29T22:50:07.589Z,5.05
2022-07-29T22:52:34.283Z,5.18
2022-07-29T22:55:00.845Z,4.30
2022-07-29T22:57:27.396Z,4.07
2022-07-29T22:59:53.909Z,4.50
2022-07-29T23:02:20.412Z,5.35
2022-07-29T23:04:47.042Z,4.25
2022-07-29T23:07:13.577Z,4.70
2022-07-29T23:09:40.128Z,4.50
2022-07-29T23:12:07.034Z,5.25
2022-07-29T23:14:33.533Z,5.25
2022-07-29T23:17:00.499Z,5.10
2022-07-29T23:19:27.424Z,5.07
2022-07-29T23:21:54.011Z,5.40
2022-07-29T23:24:20.606Z,5.13
2022-07-29T23:26:47.211Z,5.88
2022-07-29T23:29:13.771Z,5.07
2022-07-29T23:31:41.787Z,5.28
2022-07-29T23:34:14.335Z,4.78
2022-07-29T23:36:42.153Z,4.60
2022-07-29T23:39:11.296Z,5.32
2022-07-29T23:41:38.068Z,5.32
2022-07-29T23:44:04.878Z,5.43
2022-07-29T23:46:31.699Z,5.97
2022-07-29T23:48:58.299Z,5.22
2022-07-29T23:51:24.982Z,6.28
2022-07-29T23:53:53.871Z,6.00
2022-07-29T23:56:21.042Z,5.75
2022-07-29T23:58:47.877Z,6.60
